sensor_id;sensor_type;location;lat;lon;timestamp;temperature;humidity
292;DHT22;23311;48.776;9.162;2023-03-12T00:02:29;-1.00;95.50
292;DHT22;23311;48.776;9.162;2023-03-12T00:04:57;-1.20;95.50
292;DHT22;23311;48.776;9.162;2023-03-12T00:07:25;-1.20;95.50
292;DHT22;23311;48.776;9.162;2023-03-12T00:09:53;-1.10;95.50
292;DHT22;23311;48.776;9.162;2023-03-12T00:12:22;-1.10;95.50
292;DHT22;23311;48.776;9.162;2023-03-12T00:14:50;-1.10;95.50
292;DHT22;23311;48.776;9.162;2023-03-12T00:17:19;-1.20;95.50
292;DHT22;23311;48.776;9.162;2023-03-12T00:19:50;-1.20;95.50
292;DHT22;23311;48.776;9.162;2023-03-12T00:22:19;-1.20;95.50
292;DHT22;23311;48.776;9.162;2023-03-12T00:24:52;-1.20;95.50
292;DHT22;23311;48.776;9.162;2023-03-12T00:27:22;-1.20;95.50
292;DHT22;23311;48.776;9.162;2023-03-12T00:29:51;-1.30;95.50
292;DHT22;23311;48.776;9.162;2023-03-12T00:32:20;-1.30;95.50
292;DHT22;23311;48.776;9.162;2023-03-12T00:34:53;-1.10;95.50
292;DHT22;23311;48.776;9.162;2023-03-12T00:37:21;-0.70;95.50
292;DHT22;23311;48.776;9.162;2023-03-12T00:39:49;-0.90;95.50
292;DHT22;23311;48.776;9.162;2023-03-12T00:42:18;-1.10;95.50
292;DHT22;23311;48.776;9.162;2023-03-12T00:44:46;-1.40;95.50
292;DHT22;23311;48.776;9.162;2023-03-12T00:47:14;-1.40;95.50
292;DHT22;23311;48.776;9.162;2023-03-12T00:49:44;-1.30;95.50
292;DHT22;23311;48.776;9.162;2023-03-12T00:52:12;-1.20;95.50
292;DHT22;23311;48.776;9.162;2023-03-12T00:54:40;-1.40;95.50
292;DHT22;23311;48.776;9.162;2023-03-12T00:57:08;-1.50;95.50
292;DHT22;23311;48.776;9.162;2023-03-12T00:59:36;-1.50;95.50
292;DHT22;23311;48.776;9.162;2023-03-12T01:02:06;-1.50;95.50
292;DHT22;23311;48.776;9.162;2023-03-12T01:04:34;-1.40;95.50
292;DHT22;23311;48.776;9.162;2023-03-12T01:07:04;-1.20;95.50
292;DHT22;23311;48.776;9.162;2023-03-12T01:09:32;-1.20;95.50
292;DHT22;23311;48.776;9.162;2023-03-12T01:12:00;-1.10;95.50
292;DHT22;23311;48.776;9.162;2023-03-12T01:14:28;-1.10;95.50
292;DHT22;23311;48.776;9.162;2023-03-12T01:16:57;-1.00;95.50
292;DHT22;23311;48.776;9.162;2023-03-12T01:19:25;-0.80;95.50
292;DHT22;23311;48.776;9.162;2023-03-12T01:21:53;-0.80;95.50
292;DHT22;23311;48.776;9.162;2023-03-12T01:24:23;-0.80;95.50
292;DHT22;23311;48.776;9.162;2023-03-12T01:26:51;-0.70;95.50
292;DHT22;23311;48.776;9.162;2023-03-12T01:29:19;-0.60;95.50
292;DHT22;23311;48.776;9.162;2023-03-12T01:31:47;-0.70;95.50
292;DHT22;23311;48.776;9.162;2023-03-12T01:34:15;-0.70;95.50
292;DHT22;23311;48.776;9.162;2023-03-12T01:36:43;-0.60;95.50
292;DHT22;23311;48.776;9.162;2023-03-12T01:39:13;-0.50;95.50
292;DHT22;23311;48.776;9.162;2023-03-12T01:41:43;-0.50;95.50
292;DHT22;23311;48.776;9.162;2023-03-12T01:44:13;-0.50;95.50
292;DHT22;23311;48.776;9.162;2023-03-12T01:46:42;-0.40;95.50
292;DHT22;23311;48.776;9.162;2023-03-12T01:49:12;-0.30;95.50
292;DHT22;23311;48.776;9.162;2023-03-12T01:51:44;-0.20;95.50
292;DHT22;23311;48.776;9.162;2023-03-12T01:54:15;-0.20;95.50
292;DHT22;23311;48.776;9.162;2023-03-12T01:56:46;-0.10;95.50
292;DHT22;23311;48.776;9.162;2023-03-12T01:59:19;0.10;95.50
292;DHT22;23311;48.776;9.162;2023-03-12T02:01:50;0.20;95.50
292;DHT22;23311;48.776;9.162;2023-03-12T02:04:20;0.30;95.50
292;DHT22;23311;48.776;9.162;2023-03-12T02:06:53;0.30;95.50
292;DHT22;23311;48.776;9.162;2023-03-12T02:09:25;0.30;95.50
292;DHT22;23311;48.776;9.162;2023-03-12T02:11:54;0.30;95.50
292;DHT22;23311;48.776;9.162;2023-03-12T02:14:22;0.30;95.50
292;DHT22;23311;48.776;9.162;2023-03-12T02:16:52;0.30;95.50
292;DHT22;23311;48.776;9.162;2023-03-12T02:19:28;0.30;95.50
292;DHT22;23311;48.776;9.162;2023-03-12T02:21:59;0.40;95.50
292;DHT22;23311;48.776;9.162;2023-03-12T02:24:31;0.40;95.50
292;DHT22;23311;48.776;9.162;2023-03-12T02:27:02;0.30;95.50
292;DHT22;23311;48.776;9.162;2023-03-12T02:29:32;0.20;95.50
292;DHT22;23311;48.776;9.162;2023-03-12T02:32:02;0.20;95.50
292;DHT22;23311;48.776;9.162;2023-03-12T02:34:32;0.10;95.50
292;DHT22;23311;48.776;9.162;2023-03-12T02:37:01;0.00;95.50
292;DHT22;23311;48.776;9.162;2023-03-12T02:39:29;-0.10;95.50
292;DHT22;23311;48.776;9.162;2023-03-12T02:41:58;-0.10;95.50
292;DHT22;23311;48.776;9.162;2023-03-12T02:44:29;-0.10;95.50
292;DHT22;23311;48.776;9.162;2023-03-12T02:46:59;0.10;95.50
292;DHT22;23311;48.776;9.162;2023-03-12T02:49:29;0.00;95.50
292;DHT22;23311;48.776;9.162;2023-03-12T02:51:57;0.10;95.50
292;DHT22;23311;48.776;9.162;2023-03-12T02:54:25;0.10;95.50
292;DHT22;23311;48.776;9.162;2023-03-12T02:56:54;0.10;95.50
292;DHT22;23311;48.776;9.162;2023-03-12T02:59:23;0.10;95.50
292;DHT22;23311;48.776;9.162;2023-03-12T03:01:54;0.10;95.50
292;DHT22;23311;48.776;9.162;2023-03-12T03:04:27;-0.10;95.50
292;DHT22;23311;48.776;9.162;2023-03-12T03:06:55;-0.20;95.50
292;DHT22;23311;48.776;9.162;2023-03-12T03:09:23;-0.20;95.50
292;DHT22;23311;48.776;9.162;2023-03-12T03:11:51;-0.20;95.50
292;DHT22;23311;48.776;9.162;2023-03-12T03:14:19;-0.10;95.50
292;DHT22;23311;48.776;9.162;2023-03-12T03:16:47;-0.10;95.50
292;DHT22;23311;48.776;9.162;2023-03-12T03:19:16;0.10;95.50
292;DHT22;23311;48.776;9.162;2023-03-12T03:21:45;0.30;95.50
292;DHT22;23311;48.776;9.162;2023-03-12T03:24:13;0.40;95.50
292;DHT22;23311;48.776;9.162;2023-03-12T03:26:41;0.50;95.50
292;DHT22;23311;48.776;9.162;2023-03-12T03:29:09;0.60;95.50
292;DHT22;23311;48.776;9.162;2023-03-12T03:31:37;0.70;95.50
292;DHT22;23311;48.776;9.162;2023-03-12T03:34:05;0.70;95.50
292;DHT22;23311;48.776;9.162;2023-03-12T03:36:34;0.70;95.50
292;DHT22;23311;48.776;9.162;2023-03-12T03:39:02;0.80;95.50
292;DHT22;23311;48.776;9.162;2023-03-12T03:41:31;0.90;95.50
292;DHT22;23311;48.776;9.162;2023-03-12T03:43:59;1.00;95.50
292;DHT22;23311;48.776;9.162;2023-03-12T03:46:27;1.10;95.50
292;DHT22;23311;48.776;9.162;2023-03-12T03:48:56;1.20;95.50
292;DHT22;23311;48.776;9.162;2023-03-12T03:51:24;1.20;95.50
292;DHT22;23311;48.776;9.162;2023-03-12T03:53:54;1.20;95.50
292;DHT22;23311;48.776;9.162;2023-03-12T03:56:22;1.20;95.50
292;DHT22;23311;48.776;9.162;2023-03-12T03:58:50;1.40;95.50
292;DHT22;23311;48.776;9.162;2023-03-12T04:01:18;1.50;95.50
292;DHT22;23311;48.776;9.162;2023-03-12T04:03:46;1.60;95.50
292;DHT22;23311;48.776;9.162;2023-03-12T04:06:14;1.60;95.50
292;DHT22;23311;48.776;9.162;2023-03-12T04:08:42;1.60;95.50
292;DHT22;23311;48.776;9.162;2023-03-12T04:11:13;1.70;95.50
292;DHT22;23311;48.776;9.162;2023-03-12T04:13:42;1.80;95.50
292;DHT22;23311;48.776;9.162;2023-03-12T04:16:11;1.80;95.50
292;DHT22;23311;48.776;9.162;2023-03-12T04:18:40;1.80;95.50
292;DHT22;23311;48.776;9.162;2023-03-12T04:21:09;1.80;95.50
292;DHT22;23311;48.776;9.162;2023-03-12T04:23:37;1.70;95.50
292;DHT22;23311;48.776;9.162;2023-03-12T04:26:07;1.70;95.50
292;DHT22;23311;48.776;9.162;2023-03-12T04:28:37;1.70;95.50
292;DHT22;23311;48.776;9.162;2023-03-12T04:31:06;1.60;95.50
292;DHT22;23311;48.776;9.162;2023-03-12T04:33:36;1.70;95.50
292;DHT22;23311;48.776;9.162;2023-03-12T04:36:06;1.80;95.50
292;DHT22;23311;48.776;9.162;2023-03-12T04:38:34;1.90;95.50
292;DHT22;23311;48.776;9.162;2023-03-12T04:41:04;1.90;95.50
292;DHT22;23311;48.776;9.162;2023-03-12T04:43:33;2.00;95.50
292;DHT22;23311;48.776;9.162;2023-03-12T04:46:03;2.00;95.50
292;DHT22;23311;48.776;9.162;2023-03-12T04:48:33;2.10;95.50
292;DHT22;23311;48.776;9.162;2023-03-12T04:51:01;2.10;95.50
292;DHT22;23311;48.776;9.162;2023-03-12T04:53:30;2.10;95.50
292;DHT22;23311;48.776;9.162;2023-03-12T04:55:58;2.00;95.50
292;DHT22;23311;48.776;9.162;2023-03-12T04:58:26;2.10;95.50
292;DHT22;23311;48.776;9.162;2023-03-12T05:00:54;2.20;95.50
292;DHT22;23311;48.776;9.162;2023-03-12T05:03:23;2.20;95.50
292;DHT22;23311;48.776;9.162;2023-03-12T05:05:52;2.20;95.50
292;DHT22;23311;48.776;9.162;2023-03-12T05:08:20;2.20;95.50
292;DHT22;23311;48.776;9.162;2023-03-12T05:10:48;2.20;95.50
292;DHT22;23311;48.776;9.162;2023-03-12T05:13:17;2.30;95.50
292;DHT22;23311;48.776;9.162;2023-03-12T05:15:47;2.30;95.50
292;DHT22;23311;48.776;9.162;2023-03-12T05:18:16;2.30;95.50
292;DHT22;23311;48.776;9.162;2023-03-12T05:20:57;2.40;95.50
292;DHT22;23311;48.776;9.162;2023-03-12T05:23:26;2.30;95.50
292;DHT22;23311;48.776;9.162;2023-03-12T05:25:54;2.40;95.50
292;DHT22;23311;48.776;9.162;2023-03-12T05:28:23;2.40;95.50
292;DHT22;23311;48.776;9.162;2023-03-12T05:30:54;2.40;95.50
292;DHT22;23311;48.776;9.162;2023-03-12T05:33:23;2.50;95.50
292;DHT22;23311;48.776;9.162;2023-03-12T05:35:53;2.60;95.50
292;DHT22;23311;48.776;9.162;2023-03-12T05:38:21;2.70;95.50
292;DHT22;23311;48.776;9.162;2023-03-12T05:40:53;2.70;95.50
292;DHT22;23311;48.776;9.162;2023-03-12T05:43:22;2.70;95.50
292;DHT22;23311;48.776;9.162;2023-03-12T05:45:50;2.70;95.50
292;DHT22;23311;48.776;9.162;2023-03-12T05:48:19;2.70;95.50
292;DHT22;23311;48.776;9.162;2023-03-12T05:50:47;2.70;95.50
292;DHT22;23311;48.776;9.162;2023-03-12T05:53:16;2.70;95.50
292;DHT22;23311;48.776;9.162;2023-03-12T05:55:44;2.70;95.50
292;DHT22;23311;48.776;9.162;2023-03-12T05:58:12;2.60;95.50
292;DHT22;23311;48.776;9.162;2023-03-12T06:00:41;2.60;95.50
292;DHT22;23311;48.776;9.162;2023-03-12T06:03:10;2.60;95.50
292;DHT22;23311;48.776;9.162;2023-03-12T06:05:38;2.70;95.50
292;DHT22;23311;48.776;9.162;2023-03-12T06:08:06;2.60;95.50
292;DHT22;23311;48.776;9.162;2023-03-12T06:10:37;2.50;95.50
292;DHT22;23311;48.776;9.162;2023-03-12T06:13:06;2.50;95.50
292;DHT22;23311;48.776;9.162;2023-03-12T06:15:34;2.40;95.50
292;DHT22;23311;48.776;9.162;2023-03-12T06:18:02;2.30;95.50
292;DHT22;23311;48.776;9.162;2023-03-12T06:20:30;2.30;95.50
292;DHT22;23311;48.776;9.162;2023-03-12T06:22:58;2.30;95.50
292;DHT22;23311;48.776;9.162;2023-03-12T06:25:26;2.30;95.50
292;DHT22;23311;48.776;9.162;2023-03-12T06:27:56;2.30;95.50
292;DHT22;23311;48.776;9.162;2023-03-12T06:30:24;2.30;95.50
292;DHT22;23311;48.776;9.162;2023-03-12T06:32:52;2.30;95.50
292;DHT22;23311;48.776;9.162;2023-03-12T06:35:21;2.30;95.50
292;DHT22;23311;48.776;9.162;2023-03-12T06:37:49;2.30;95.50
292;DHT22;23311;48.776;9.162;2023-03-12T06:40:17;2.30;95.50
292;DHT22;23311;48.776;9.162;2023-03-12T06:42:45;2.40;95.50
292;DHT22;23311;48.776;9.162;2023-03-12T06:45:14;2.50;95.50
292;DHT22;23311;48.776;9.162;2023-03-12T06:47:42;2.60;95.50
292;DHT22;23311;48.776;9.162;2023-03-12T06:50:10;2.70;95.50
292;DHT22;23311;48.776;9.162;2023-03-12T06:52:38;2.80;95.50
292;DHT22;23311;48.776;9.162;2023-03-12T06:55:07;2.80;95.50
292;DHT22;23311;48.776;9.162;2023-03-12T06:57:36;2.80;95.50
292;DHT22;23311;48.776;9.162;2023-03-12T07:00:05;2.90;95.50
292;DHT22;23311;48.776;9.162;2023-03-12T07:02:35;3.00;95.50
292;DHT22;23311;48.776;9.162;2023-03-12T07:05:04;3.10;95.50
292;DHT22;23311;48.776;9.162;2023-03-12T07:07:32;3.20;95.50
292;DHT22;23311;48.776;9.162;2023-03-12T07:10:00;3.20;95.50
292;DHT22;23311;48.776;9.162;2023-03-12T07:12:28;3.30;95.50
292;DHT22;23311;48.776;9.162;2023-03-12T07:14:56;3.20;95.50
292;DHT22;23311;48.776;9.162;2023-03-12T07:17:24;3.20;95.50
292;DHT22;23311;48.776;9.162;2023-03-12T07:19:54;3.20;95.50
292;DHT22;23311;48.776;9.162;2023-03-12T07:22:22;3.20;95.50
292;DHT22;23311;48.776;9.162;2023-03-12T07:24:50;3.20;95.50
292;DHT22;23311;48.776;9.162;2023-03-12T07:27:18;3.10;95.50
292;DHT22;23311;48.776;9.162;2023-03-12T07:29:46;3.10;95.50
292;DHT22;23311;48.776;9.162;2023-03-12T07:32:14;3.10;95.50
292;DHT22;23311;48.776;9.162;2023-03-12T07:34:42;3.10;95.50
292;DHT22;23311;48.776;9.162;2023-03-12T07:37:12;3.00;95.50
292;DHT22;23311;48.776;9.162;2023-03-12T07:39:40;3.00;95.50
292;DHT22;23311;48.776;9.162;2023-03-12T07:42:09;3.00;95.50
292;DHT22;23311;48.776;9.162;2023-03-12T07:44:38;3.00;95.50
292;DHT22;23311;48.776;9.162;2023-03-12T07:47:06;3.10;95.50
292;DHT22;23311;48.776;9.162;2023-03-12T07:49:49;3.20;95.50
292;DHT22;23311;48.776;9.162;2023-03-12T07:52:18;3.40;95.50
292;DHT22;23311;48.776;9.162;2023-03-12T07:54:46;3.40;95.50
292;DHT22;23311;48.776;9.162;2023-03-12T07:57:15;3.50;95.50
292;DHT22;23311;48.776;9.162;2023-03-12T07:59:43;3.50;95.50
292;DHT22;23311;48.776;9.162;2023-03-12T08:02:12;3.60;95.50
292;DHT22;23311;48.776;9.162;2023-03-12T08:04:41;3.90;95.50
292;DHT22;23311;48.776;9.162;2023-03-12T08:07:09;4.20;95.50
292;DHT22;23311;48.776;9.162;2023-03-12T08:09:39;4.40;95.50
292;DHT22;23311;48.776;9.162;2023-03-12T08:12:08;4.50;95.50
292;DHT22;23311;48.776;9.162;2023-03-12T08:14:36;4.40;95.50
292;DHT22;23311;48.776;9.162;2023-03-12T08:17:04;4.60;95.50
292;DHT22;23311;48.776;9.162;2023-03-12T08:19:32;4.60;95.50
292;DHT22;23311;48.776;9.162;2023-03-12T08:22:00;4.60;95.50
292;DHT22;23311;48.776;9.162;2023-03-12T08:24:28;4.60;95.50
292;DHT22;23311;48.776;9.162;2023-03-12T08:26:58;4.60;95.50
292;DHT22;23311;48.776;9.162;2023-03-12T08:29:26;4.70;95.50
292;DHT22;23311;48.776;9.162;2023-03-12T08:31:54;4.70;95.50
292;DHT22;23311;48.776;9.162;2023-03-12T08:34:31;4.60;95.50
292;DHT22;23311;48.776;9.162;2023-03-12T08:36:59;4.80;95.50
292;DHT22;23311;48.776;9.162;2023-03-12T08:39:27;4.60;95.50
292;DHT22;23311;48.776;9.162;2023-03-12T08:41:55;4.60;95.50
292;DHT22;23311;48.776;9.162;2023-03-12T08:44:24;4.70;95.50
292;DHT22;23311;48.776;9.162;2023-03-12T08:46:52;4.90;95.50
292;DHT22;23311;48.776;9.162;2023-03-12T08:49:21;5.10;95.50
292;DHT22;23311;48.776;9.162;2023-03-12T08:51:49;5.30;95.50
292;DHT22;23311;48.776;9.162;2023-03-12T08:54:18;5.40;95.50
292;DHT22;23311;48.776;9.162;2023-03-12T08:56:49;5.40;95.50
292;DHT22;23311;48.776;9.162;2023-03-12T08:59:18;5.20;95.50
292;DHT22;23311;48.776;9.162;2023-03-12T09:01:49;5.20;95.50
292;DHT22;23311;48.776;9.162;2023-03-12T09:04:17;5.40;95.50
292;DHT22;23311;48.776;9.162;2023-03-12T09:06:46;5.50;95.50
292;DHT22;23311;48.776;9.162;2023-03-12T09:09:14;5.60;95.50
292;DHT22;23311;48.776;9.162;2023-03-12T09:11:42;5.60;95.50
292;DHT22;23311;48.776;9.162;2023-03-12T09:14:10;5.70;95.50
292;DHT22;23311;48.776;9.162;2023-03-12T09:16:59;5.80;95.50
292;DHT22;23311;48.776;9.162;2023-03-12T09:19:28;6.00;95.50
292;DHT22;23311;48.776;9.162;2023-03-12T09:21:56;6.20;95.50
292;DHT22;23311;48.776;9.162;2023-03-12T09:24:24;6.40;95.50
292;DHT22;23311;48.776;9.162;2023-03-12T09:26:52;6.60;95.50
292;DHT22;23311;48.776;9.162;2023-03-12T09:29:21;6.80;95.50
292;DHT22;23311;48.776;9.162;2023-03-12T09:31:49;6.90;95.50
292;DHT22;23311;48.776;9.162;2023-03-12T09:34:18;7.20;95.50
292;DHT22;23311;48.776;9.162;2023-03-12T09:36:46;7.30;95.50
292;DHT22;23311;48.776;9.162;2023-03-12T09:39:15;7.40;95.50
292;DHT22;23311;48.776;9.162;2023-03-12T09:41:45;7.50;95.50
292;DHT22;23311;48.776;9.162;2023-03-12T09:44:17;7.70;95.50
292;DHT22;23311;48.776;9.162;2023-03-12T09:46:50;7.80;95.50
292;DHT22;23311;48.776;9.162;2023-03-12T09:49:28;7.70;95.50
292;DHT22;23311;48.776;9.162;2023-03-12T09:51:58;7.90;95.50
292;DHT22;23311;48.776;9.162;2023-03-12T09:54:31;8.20;95.50
292;DHT22;23311;48.776;9.162;2023-03-12T09:57:08;8.50;95.50
292;DHT22;23311;48.776;9.162;2023-03-12T09:59:36;8.80;95.50
292;DHT22;23311;48.776;9.162;2023-03-12T10:02:14;9.00;95.50
292;DHT22;23311;48.776;9.162;2023-03-12T10:04:51;9.70;95.50
292;DHT22;23311;48.776;9.162;2023-03-12T10:07:31;10.10;95.50
292;DHT22;23311;48.776;9.162;2023-03-12T10:10:13;10.20;95.50
292;DHT22;23311;48.776;9.162;2023-03-12T10:12:53;10.00;95.50
292;DHT22;23311;48.776;9.162;2023-03-12T10:15:33;10.00;95.50
292;DHT22;23311;48.776;9.162;2023-03-12T10:18:12;10.30;95.50
292;DHT22;23311;48.776;9.162;2023-03-12T10:21:02;10.60;95.50
292;DHT22;23311;48.776;9.162;2023-03-12T10:23:40;11.30;95.50
292;DHT22;23311;48.776;9.162;2023-03-12T10:26:15;11.80;95.50
292;DHT22;23311;48.776;9.162;2023-03-12T10:28:48;11.90;95.50
292;DHT22;23311;48.776;9.162;2023-03-12T10:31:20;11.50;95.50
292;DHT22;23311;48.776;9.162;2023-03-12T10:33:51;10.80;95.50
292;DHT22;23311;48.776;9.162;2023-03-12T10:36:25;10.90;95.50
292;DHT22;23311;48.776;9.162;2023-03-12T10:38:55;11.40;95.50
292;DHT22;23311;48.776;9.162;2023-03-12T10:41:27;10.80;95.50
292;DHT22;23311;48.776;9.162;2023-03-12T10:43:59;11.20;95.50
292;DHT22;23311;48.776;9.162;2023-03-12T10:46:41;11.60;95.50
292;DHT22;23311;48.776;9.162;2023-03-12T10:49:25;10.50;95.50
292;DHT22;23311;48.776;9.162;2023-03-12T10:51:57;10.60;95.50
292;DHT22;23311;48.776;9.162;2023-03-12T10:54:29;10.70;95.50
292;DHT22;23311;48.776;9.162;2023-03-12T10:56:57;10.20;95.50
292;DHT22;23311;48.776;9.162;2023-03-12T10:59:28;10.10;95.50
292;DHT22;23311;48.776;9.162;2023-03-12T11:01:57;9.80;95.50
292;DHT22;23311;48.776;9.162;2023-03-12T11:04:28;9.90;95.50
292;DHT22;23311;48.776;9.162;2023-03-12T11:07:18;9.90;95.50
292;DHT22;23311;48.776;9.162;2023-03-12T11:10:15;9.80;95.50
292;DHT22;23311;48.776;9.162;2023-03-12T11:12:59;10.40;95.50
292;DHT22;23311;48.776;9.162;2023-03-12T11:15:35;11.10;95.50
292;DHT22;23311;48.776;9.162;2023-03-12T11:18:23;11.50;95.50
292;DHT22;23311;48.776;9.162;2023-03-12T11:20:54;11.80;95.50
292;DHT22;23311;48.776;9.162;2023-03-12T11:23:27;12.20;95.50
292;DHT22;23311;48.776;9.162;2023-03-12T11:25:57;12.60;95.50
292;DHT22;23311;48.776;9.162;2023-03-12T11:28:35;12.80;95.50
292;DHT22;23311;48.776;9.162;2023-03-12T11:31:07;12.90;95.50
292;DHT22;23311;48.776;9.162;2023-03-12T11:33:37;12.10;95.50
292;DHT22;23311;48.776;9.162;2023-03-12T11:36:15;12.30;95.50
292;DHT22;23311;48.776;9.162;2023-03-12T11:38:52;12.20;95.50
292;DHT22;23311;48.776;9.162;2023-03-12T11:41:39;12.70;95.50
292;DHT22;23311;48.776;9.162;2023-03-12T11:44:26;12.10;95.50
292;DHT22;23311;48.776;9.162;2023-03-12T11:47:09;12.10;95.50
292;DHT22;23311;48.776;9.162;2023-03-12T11:50:02;12.00;95.50
292;DHT22;23311;48.776;9.162;2023-03-12T11:52:42;11.70;95.50
292;DHT22;23311;48.776;9.162;2023-03-12T11:55:33;11.90;95.50
292;DHT22;23311;48.776;9.162;2023-03-12T11:58:19;12.10;95.50
292;DHT22;23311;48.776;9.162;2023-03-12T12:00:54;11.20;95.50
292;DHT22;23311;48.776;9.162;2023-03-12T12:06:42;11.70;95.50
292;DHT22;23311;48.776;9.162;2023-03-12T12:09:21;12.40;95.50
292;DHT22;23311;48.776;9.162;2023-03-12T12:12:02;13.00;95.50
292;DHT22;23311;48.776;9.162;2023-03-12T12:14:48;13.20;95.50
292;DHT22;23311;48.776;9.162;2023-03-12T12:17:28;12.40;95.50
292;DHT22;23311;48.776;9.162;2023-03-12T12:20:10;12.60;95.50
292;DHT22;23311;48.776;9.162;2023-03-12T12:22:48;13.00;95.50
292;DHT22;23311;48.776;9.162;2023-03-12T12:25:29;13.40;95.50
292;DHT22;23311;48.776;9.162;2023-03-12T12:28:13;13.00;95.50
292;DHT22;23311;48.776;9.162;2023-03-12T12:30:57;13.40;95.50
292;DHT22;23311;48.776;9.162;2023-03-12T12:33:36;13.20;95.50
292;DHT22;23311;48.776;9.162;2023-03-12T12:36:10;13.10;95.50
292;DHT22;23311;48.776;9.162;2023-03-12T12:38:43;12.80;95.50
292;DHT22;23311;48.776;9.162;2023-03-12T12:41:16;13.00;95.50
292;DHT22;23311;48.776;9.162;2023-03-12T12:43:49;13.40;95.50
292;DHT22;23311;48.776;9.162;2023-03-12T12:46:19;13.30;95.50
292;DHT22;23311;48.776;9.162;2023-03-12T12:48:52;13.10;95.50
292;DHT22;23311;48.776;9.162;2023-03-12T12:51:23;13.50;95.50
292;DHT22;23311;48.776;9.162;2023-03-12T12:53:58;13.60;95.50
292;DHT22;23311;48.776;9.162;2023-03-12T12:56:31;13.40;95.50
292;DHT22;23311;48.776;9.162;2023-03-12T12:59:18;13.30;95.50
292;DHT22;23311;48.776;9.162;2023-03-12T13:01:51;13.10;95.50
292;DHT22;23311;48.776;9.162;2023-03-12T13:04:27;13.00;95.50
292;DHT22;23311;48.776;9.162;2023-03-12T13:07:01;12.70;95.50
292;DHT22;23311;48.776;9.162;2023-03-12T13:09:40;12.50;95.50
292;DHT22;23311;48.776;9.162;2023-03-12T13:12:14;12.40;95.50
292;DHT22;23311;48.776;9.162;2023-03-12T13:14:44;12.30;95.50
292;DHT22;23311;48.776;9.162;2023-03-12T13:17:27;12.10;95.50
292;DHT22;23311;48.776;9.162;2023-03-12T13:20:10;11.90;95.50
292;DHT22;23311;48.776;9.162;2023-03-12T13:22:47;12.30;95.50
292;DHT22;23311;48.776;9.162;2023-03-12T13:25:32;13.00;95.50
292;DHT22;23311;48.776;9.162;2023-03-12T13:28:27;13.50;95.50
292;DHT22;23311;48.776;9.162;2023-03-12T13:31:00;13.20;95.50
292;DHT22;23311;48.776;9.162;2023-03-12T13:33:42;12.80;95.50
292;DHT22;23311;48.776;9.162;2023-03-12T13:36:20;12.60;95.50
292;DHT22;23311;48.776;9.162;2023-03-12T13:38:55;12.50;95.50
292;DHT22;23311;48.776;9.162;2023-03-12T13:41:34;12.80;95.50
292;DHT22;23311;48.776;9.162;2023-03-12T13:44:22;13.40;95.50
292;DHT22;23311;48.776;9.162;2023-03-12T13:46:59;13.70;94.90
292;DHT22;23311;48.776;9.162;2023-03-12T13:49:34;13.50;94.50
292;DHT22;23311;48.776;9.162;2023-03-12T13:52:17;13.50;94.90
292;DHT22;23311;48.776;9.162;2023-03-12T13:54:47;13.80;94.00
292;DHT22;23311;48.776;9.162;2023-03-12T13:57:33;13.90;93.30
292;DHT22;23311;48.776;9.162;2023-03-12T14:00:10;14.00;93.70
292;DHT22;23311;48.776;9.162;2023-03-12T14:02:48;13.90;94.00
292;DHT22;23311;48.776;9.162;2023-03-12T14:05:18;13.40;94.20
292;DHT22;23311;48.776;9.162;2023-03-12T14:08:04;13.50;94.90
292;DHT22;23311;48.776;9.162;2023-03-12T14:10:45;13.80;93.30
292;DHT22;23311;48.776;9.162;2023-03-12T14:13:30;13.60;92.70
292;DHT22;23311;48.776;9.162;2023-03-12T14:16:05;13.60;93.70
292;DHT22;23311;48.776;9.162;2023-03-12T14:18:42;13.60;93.30
292;DHT22;23311;48.776;9.162;2023-03-12T14:21:14;13.40;94.00
292;DHT22;23311;48.776;9.162;2023-03-12T14:23:45;13.30;94.40
292;DHT22;23311;48.776;9.162;2023-03-12T14:26:19;13.40;94.70
292;DHT22;23311;48.776;9.162;2023-03-12T14:28:56;12.90;95.50
292;DHT22;23311;48.776;9.162;2023-03-12T14:31:27;12.70;95.50
292;DHT22;23311;48.776;9.162;2023-03-12T14:34:01;12.60;95.50
292;DHT22;23311;48.776;9.162;2023-03-12T14:36:38;12.60;95.50
292;DHT22;23311;48.776;9.162;2023-03-12T14:39:14;12.40;95.50
292;DHT22;23311;48.776;9.162;2023-03-12T14:41:47;12.50;95.50
292;DHT22;23311;48.776;9.162;2023-03-12T14:44:21;12.60;95.50
292;DHT22;23311;48.776;9.162;2023-03-12T14:46:57;12.80;95.50
292;DHT22;23311;48.776;9.162;2023-03-12T14:49:28;13.00;95.50
292;DHT22;23311;48.776;9.162;2023-03-12T14:51:57;13.00;94.40
292;DHT22;23311;48.776;9.162;2023-03-12T14:54:26;13.00;93.60
292;DHT22;23311;48.776;9.162;2023-03-12T14:56:54;13.00;93.40
292;DHT22;23311;48.776;9.162;2023-03-12T14:59:25;13.00;92.70
292;DHT22;23311;48.776;9.162;2023-03-12T15:01:58;13.10;92.30
292;DHT22;23311;48.776;9.162;2023-03-12T15:04:28;13.00;92.20
292;DHT22;23311;48.776;9.162;2023-03-12T15:06:59;12.70;92.20
292;DHT22;23311;48.776;9.162;2023-03-12T15:09:33;12.70;92.40
292;DHT22;23311;48.776;9.162;2023-03-12T15:12:04;12.80;91.70
292;DHT22;23311;48.776;9.162;2023-03-12T15:14:36;12.70;92.60
292;DHT22;23311;48.776;9.162;2023-03-12T15:17:05;12.70;92.80
292;DHT22;23311;48.776;9.162;2023-03-12T15:19:36;12.70;93.30
292;DHT22;23311;48.776;9.162;2023-03-12T15:22:10;12.80;93.50
292;DHT22;23311;48.776;9.162;2023-03-12T15:24:39;12.90;93.20
292;DHT22;23311;48.776;9.162;2023-03-12T15:27:28;12.90;93.30
292;DHT22;23311;48.776;9.162;2023-03-12T15:29:58;13.00;92.50
292;DHT22;23311;48.776;9.162;2023-03-12T15:32:27;12.90;92.50
292;DHT22;23311;48.776;9.162;2023-03-12T15:35:11;12.60;92.60
292;DHT22;23311;48.776;9.162;2023-03-12T15:37:40;12.60;92.80
292;DHT22;23311;48.776;9.162;2023-03-12T15:40:20;12.70;92.60
292;DHT22;23311;48.776;9.162;2023-03-12T15:42:49;12.80;92.00
292;DHT22;23311;48.776;9.162;2023-03-12T15:45:21;12.70;92.20
292;DHT22;23311;48.776;9.162;2023-03-12T15:47:50;12.70;92.50
292;DHT22;23311;48.776;9.162;2023-03-12T15:50:24;12.80;92.40
292;DHT22;23311;48.776;9.162;2023-03-12T15:53:01;12.80;92.40
292;DHT22;23311;48.776;9.162;2023-03-12T15:55:31;12.80;92.00
292;DHT22;23311;48.776;9.162;2023-03-12T15:58:00;12.80;92.20
292;DHT22;23311;48.776;9.162;2023-03-12T16:00:30;12.70;92.50
292;DHT22;23311;48.776;9.162;2023-03-12T16:02:59;12.60;92.60
292;DHT22;23311;48.776;9.162;2023-03-12T16:05:31;12.70;92.60
292;DHT22;23311;48.776;9.162;2023-03-12T16:08:00;12.60;92.70
292;DHT22;23311;48.776;9.162;2023-03-12T16:10:34;12.60;92.50
292;DHT22;23311;48.776;9.162;2023-03-12T16:13:04;12.60;92.50
292;DHT22;23311;48.776;9.162;2023-03-12T16:15:35;12.60;92.40
292;DHT22;23311;48.776;9.162;2023-03-12T16:18:03;12.60;92.20
292;DHT22;23311;48.776;9.162;2023-03-12T16:20:33;12.50;92.20
292;DHT22;23311;48.776;9.162;2023-03-12T16:23:01;12.50;92.50
292;DHT22;23311;48.776;9.162;2023-03-12T16:25:29;12.50;92.40
292;DHT22;23311;48.776;9.162;2023-03-12T16:28:01;12.40;92.40
292;DHT22;23311;48.776;9.162;2023-03-12T16:30:32;12.30;91.90
292;DHT22;23311;48.776;9.162;2023-03-12T16:33:02;12.30;92.10
292;DHT22;23311;48.776;9.162;2023-03-12T16:35:36;12.30;92.00
292;DHT22;23311;48.776;9.162;2023-03-12T16:38:04;12.20;91.90
292;DHT22;23311;48.776;9.162;2023-03-12T16:40:34;12.10;92.30
292;DHT22;23311;48.776;9.162;2023-03-12T16:43:05;12.10;92.10